Time;durP1;ratioP1;P1;durP2;ratioP2;P2;SDS_P1;SDS_P2;PMS_P1;PMS_P2;Temp;Humidity;BMP_temperature;BMP_pressure;BME280_temperature;BME280_humidity;BME280_pressure;Samples;Min_cycle;Max_cycle;Signal;HPM_P1;HPM_P2
2021/06/01 00:01:09;;;;;;;4.38;2.65;;;;;;;12.20;49.11;96779.09;4977014;28;20054;-57
2021/06/01 00:03:34;;;;;;;5.32;2.67;;;;;;;12.16;49.33;96769.28;4984360;28;20388;-59
2021/06/01 00:05:59;;;;;;;5.88;2.30;;;;;;;12.15;49.47;96773.16;4982828;28;20415;-60
2021/06/01 00:08:25;;;;;;;3.78;2.65;;;;;;;12.08;49.82;96773.88;4968293;28;20042;-61
2021/06/01 00:10:50;;;;;;;4.95;2.83;;;;;;;12.00;50.21;96777.72;4963895;28;20039;-59
2021/06/01 00:13:16;;;;;;;4.78;2.58;;;;;;;11.98;49.97;96775.34;4958788;28;20039;-57
2021/06/01 00:15:41;;;;;;;4.05;2.30;;;;;;;12.03;49.56;96771.47;4963906;28;20046;-61
2021/06/01 00:18:07;;;;;;;6.60;2.55;;;;;;;11.97;49.68;96772.97;4958958;28;20038;-58
2021/06/01 00:20:32;;;;;;;4.28;2.40;;;;;;;11.87;50.58;96774.38;4981633;28;20266;-58
2021/06/01 00:22:57;;;;;;;4.47;2.80;;;;;;;11.97;49.88;96767.47;4981158;28;20063;-59
2021/06/01 00:25:23;;;;;;;4.95;2.60;;;;;;;11.80;50.84;96775.09;4974110;28;20039;-60
2021/06/01 00:27:48;;;;;;;7.72;2.50;;;;;;;11.74;50.92;96773.03;4984027;28;20047;-60
2021/06/01 00:30:14;;;;;;;4.20;2.35;;;;;;;11.67;51.20;96779.22;4980990;28;20041;-57
2021/06/01 00:32:39;;;;;;;4.57;2.53;;;;;;;11.56;51.92;96775.53;4977745;28;20042;-59
2021/06/01 00:35:05;;;;;;;4.32;2.42;;;;;;;11.54;52.05;96781.41;4974253;28;20379;-61
2021/06/01 00:37:31;;;;;;;5.03;2.40;;;;;;;11.44;52.09;96784.78;4972260;28;20042;-60
2021/06/01 00:39:56;;;;;;;3.95;2.35;;;;;;;11.39;52.28;96774.13;4974883;28;20042;-60
2021/06/01 00:42:22;;;;;;;6.35;2.97;;;;;;;11.38;51.92;96778.84;4963172;28;20440;-58
2021/06/01 00:44:50;;;;;;;3.15;2.00;;;;;;;11.38;52.01;96775.28;4978575;28;20051;-60
2021/06/01 00:47:15;;;;;;;4.82;2.45;;;;;;;11.37;52.42;96784.69;4968789;28;20042;-59
2021/06/01 00:49:41;;;;;;;5.97;2.88;;;;;;;11.26;53.19;96782.56;4980647;28;20046;-57
2021/06/01 00:52:06;;;;;;;4.78;2.53;;;;;;;11.24;52.75;96781.38;4976381;28;20627;-61
2021/06/01 00:54:33;;;;;;;9.73;3.22;;;;;;;11.14;53.21;96776.50;4971749;28;20049;-58
2021/06/01 00:56:59;;;;;;;5.78;2.67;;;;;;;11.06;53.66;96778.34;4962498;28;20038;-59
2021/06/01 00:59:24;;;;;;;7.15;3.53;;;;;;;11.03;53.68;96784.56;4951870;28;20042;-60
2021/06/01 01:01:50;;;;;;;5.70;3.00;;;;;;;11.02;53.80;96780.22;4975614;28;20066;-61
2021/06/01 01:04:15;;;;;;;5.70;2.70;;;;;;;10.97;53.92;96777.81;4964254;28;20049;-60
2021/06/01 01:06:55;;;;;;;4.45;2.38;;;;;;;10.95;54.22;96782.84;4965772;28;20042;-61
2021/06/01 01:09:21;;;;;;;5.50;2.72;;;;;;;10.85;54.24;96787.00;4973073;28;20830;-58
2021/06/01 01:11:59;;;;;;;4.10;2.60;;;;;;;10.78;54.79;96781.41;4973331;28;20045;-60
2021/06/01 01:14:34;;;;;;;3.67;2.63;;;;;;;10.79;54.61;96780.28;4974799;28;20050;-58
2021/06/01 01:17:01;;;;;;;3.65;2.35;;;;;;;10.80;54.43;96779.88;4981337;28;20048;-61
2021/06/01 01:20:02;;;;;;;4.28;2.70;;;;;;;10.75;54.91;96777.47;4969150;28;20042;-59
2021/06/01 01:22:30;;;;;;;6.78;2.50;;;;;;;10.74;54.48;96778.63;4953099;28;20054;-60
2021/06/01 01:25:07;;;;;;;4.50;2.72;;;;;;;10.73;54.82;96773.50;4981579;28;20042;-60
2021/06/01 01:27:42;;;;;;;5.25;2.78;;;;;;;10.74;54.85;96783.31;4961944;28;20137;-60
2021/06/01 01:30:12;;;;;;;3.45;2.45;;;;;;;10.70;55.08;96772.28;4956644;28;20057;-61
2021/06/01 01:33:00;;;;;;;4.65;2.72;;;;;;;10.72;55.40;96780.94;4963792;28;20069;-57
2021/06/01 01:35:29;;;;;;;5.03;2.67;;;;;;;10.74;54.61;96775.09;4961135;28;20070;-62
2021/06/01 01:37:59;;;;;;;4.10;2.30;;;;;;;10.67;55.35;96787.50;4964616;28;20042;-61
2021/06/01 01:40:26;;;;;;;5.78;3.00;;;;;;;10.61;56.32;96786.22;4976564;28;20058;-59
2021/06/01 01:43:00;;;;;;;3.65;2.17;;;;;;;10.61;56.27;96774.47;4982439;28;20038;-59
2021/06/01 01:45:30;;;;;;;3.53;2.20;;;;;;;10.45;56.70;96767.16;4976904;28;20054;-62
2021/06/01 01:50:45;;;;;;;5.43;2.58;;;;;;;10.19;59.30;96784.25;4979576;28;20039;-59
2021/06/01 01:53:13;;;;;;;4.32;2.60;;;;;;;9.94;59.85;96792.78;4976448;28;20579;-60
2021/06/01 01:55:39;;;;;;;3.95;2.70;;;;;;;9.80;59.51;96780.75;4993156;28;20081;-62
2021/06/01 01:58:05;;;;;;;5.40;2.67;;;;;;;9.70;59.35;96771.94;4987612;28;20042;-62
2021/06/01 02:00:32;;;;;;;3.75;2.53;;;;;;;9.67;61.24;96774.59;4970541;28;20042;-61
2021/06/01 02:02:58;;;;;;;3.88;2.35;;;;;;;9.70;61.33;96788.34;4980665;28;20092;-62
2021/06/01 02:05:24;;;;;;;5.70;2.50;;;;;;;9.59;61.83;96786.56;4975121;28;20769;-61
2021/06/01 02:07:50;;;;;;;4.63;2.78;;;;;;;9.66;63.44;96782.03;4977906;28;20053;-62
2021/06/01 02:10:15;;;;;;;3.78;2.42;;;;;;;9.65;63.33;96782.38;4975278;28;20116;-61
2021/06/01 02:12:41;;;;;;;4.35;2.72;;;;;;;9.53;62.80;96777.84;4980610;28;20038;-61
2021/06/01 02:15:08;;;;;;;5.18;2.72;;;;;;;9.27;63.23;96778.44;4971806;28;20046;-59
2021/06/01 02:17:34;;;;;;;4.45;2.45;;;;;;;9.14;64.31;96781.25;4962485;28;20527;-59
2021/06/01 02:19:59;;;;;;;6.03;3.92;;;;;;;8.99;64.95;96785.59;4973572;28;20042;-60
2021/06/01 02:26:02;;;;;;;4.78;2.97;;;;;;;8.49;66.31;96773.44;4954155;28;20042;-57
2021/06/01 02:28:39;;;;;;;5.82;3.05;;;;;;;8.44;66.26;96781.09;4963556;28;20107;-59
2021/06/01 02:31:09;;;;;;;5.25;2.78;;;;;;;8.54;67.71;96783.34;4971762;28;20435;-61
2021/06/01 02:33:37;;;;;;;5.43;2.88;;;;;;;8.53;67.54;96777.06;4973104;28;20039;-59
2021/06/01 02:36:04;;;;;;;4.80;2.88;;;;;;;8.51;67.44;96778.56;4979060;28;20044;-61
2021/06/01 02:38:34;;;;;;;5.05;2.97;;;;;;;8.35;68.07;96783.97;4979928;28;20101;-59
2021/06/01 02:41:04;;;;;;;5.30;3.72;;;;;;;8.15;68.32;96780.31;4978701;28;20043;-60
2021/06/01 02:43:30;;;;;;;;;;;;;;;8.00;69.48;96784.59;4969421;28;20040;-59
2021/06/01 02:45:56;;;;;;;5.65;3.08;;;;;;;7.91;70.11;96778.50;4970617;28;19918;-60
2021/06/01 02:48:23;;;;;;;4.70;3.20;;;;;;;7.88;69.62;96779.19;4968621;28;20051;-60
2021/06/01 02:50:52;;;;;;;3.70;2.63;;;;;;;7.80;69.50;96781.72;4981548;28;20038;-61
2021/06/01 02:53:21;;;;;;;4.77;3.30;;;;;;;7.77;70.31;96784.34;4976604;28;20112;-61
2021/06/01 02:55:48;;;;;;;6.00;3.30;;;;;;;7.75;70.15;96783.91;4981183;28;20116;-58
2021/06/01 02:58:14;;;;;;;6.00;3.08;;;;;;;7.78;70.26;96772.31;4974693;28;20054;-61
2021/06/01 03:00:42;;;;;;;5.00;3.10;;;;;;;7.72;69.73;96774.47;4979658;28;20047;-60
2021/06/01 03:03:10;;;;;;;7.00;3.08;;;;;;;7.79;70.82;96785.56;4973140;28;20054;-60
2021/06/01 03:05:36;;;;;;;4.82;2.92;;;;;;;7.65;70.98;96785.16;4973332;28;20101;-62
2021/06/01 03:08:30;;;;;;;5.95;3.35;;;;;;;7.66;71.47;96779.38;4975173;28;20050;-59
2021/06/01 03:10:57;;;;;;;4.40;2.60;;;;;;;7.63;71.70;96784.72;4978249;28;20038;-61
2021/06/01 03:13:24;;;;;;;6.80;3.13;;;;;;;7.53;72.44;96779.78;4971273;28;20624;-59
2021/06/01 03:15:49;;;;;;;7.15;3.20;;;;;;;7.35;71.41;96784.69;4975917;28;20050;-60
2021/06/01 03:18:15;;;;;;;5.82;2.92;;;;;;;7.32;72.16;96777.19;4961836;28;20138;-61
2021/06/01 03:20:41;;;;;;;5.20;3.40;;;;;;;7.24;71.85;96782.44;4974036;28;20136;-59
2021/06/01 03:23:07;;;;;;;5.82;3.22;;;;;;;7.25;73.38;96780.50;4964759;28;20212;-61
2021/06/01 03:25:32;;;;;;;7.15;3.75;;;;;;;7.32;73.92;96790.81;4963073;28;20050;-60
2021/06/01 03:27:58;;;;;;;6.93;3.38;;;;;;;7.43;73.97;96789.97;4962718;28;20038;-60
2021/06/01 03:30:24;;;;;;;4.35;2.97;;;;;;;7.35;71.69;96790.94;4972820;28;20046;-57
2021/06/01 03:32:50;;;;;;;6.55;3.08;;;;;;;7.41;73.11;96795.00;4977467;28;20042;-61
2021/06/01 03:35:15;;;;;;;7.40;3.72;;;;;;;7.31;73.40;96794.66;4978904;28;20396;-57
2021/06/01 03:37:41;;;;;;;7.97;3.47;;;;;;;6.97;76.34;96794.81;4975695;28;20042;-59
2021/06/01 03:40:07;;;;;;;5.32;3.25;;;;;;;6.88;77.03;96789.47;4978067;28;20050;-57
2021/06/01 03:42:32;;;;;;;5.32;3.53;;;;;;;7.14;76.72;96791.06;4974889;28;20146;-57
2021/06/01 03:44:58;;;;;;;4.85;3.20;;;;;;;7.32;74.84;96790.81;4983094;28;20137;-61
2021/06/01 03:47:24;;;;;;;7.40;3.60;;;;;;;7.30;75.00;96784.91;4970231;28;20782;-60
2021/06/01 03:49:49;;;;;;;8.57;3.75;;;;;;;7.42;74.90;96787.63;4978729;28;20058;-62
2021/06/01 03:52:14;;;;;;;4.63;3.10;;;;;;;7.54;74.51;96795.75;4967188;28;20130;-62
2021/06/01 03:54:40;;;;;;;6.40;3.10;;;;;;;7.63;74.10;96787.44;4982022;28;20061;-60
2021/06/01 03:57:09;;;;;;;14.05;5.25;;;;;;;7.75;73.82;96786.63;4973089;28;20611;-61
2021/06/01 03:59:34;;;;;;;10.27;3.55;;;;;;;7.72;73.30;96792.75;4971899;28;20522;-61
2021/06/01 04:02:00;;;;;;;6.25;3.63;;;;;;;7.54;74.00;96794.97;4981615;28;20046;-60
2021/06/01 04:04:25;;;;;;;6.68;3.30;;;;;;;7.79;73.89;96795.69;4962314;28;20424;-60
2021/06/01 04:06:51;;;;;;;5.80;4.22;;;;;;;7.95;72.29;96791.09;4975619;28;20038;-60
2021/06/01 04:09:16;;;;;;;7.70;3.78;;;;;;;7.90;72.98;96791.34;4970140;28;20505;-61
2021/06/01 04:11:43;;;;;;;6.03;3.60;;;;;;;8.12;72.15;96797.38;4989085;28;20062;-60
2021/06/01 04:14:08;;;;;;;5.93;3.60;;;;;;;8.21;71.78;96801.56;4984554;28;20567;-61
2021/06/01 04:16:34;;;;;;;9.13;3.80;;;;;;;8.43;71.33;96788.50;4988639;28;20114;-60
2021/06/01 04:18:59;;;;;;;8.82;3.38;;;;;;;8.66;70.63;96791.44;4979768;28;20130;-62
2021/06/01 04:21:25;;;;;;;9.00;3.28;;;;;;;8.87;69.70;96796.63;4974470;28;20050;-61
2021/06/01 04:23:50;;;;;;;8.18;3.35;;;;;;;9.02;68.88;96794.25;4979412;28;20049;-61
2021/06/01 04:26:15;;;;;;;6.63;3.15;;;;;;;9.09;68.42;96797.13;4975987;28;20100;-60
2021/06/01 04:28:41;;;;;;;4.80;3.17;;;;;;;9.21;68.61;96799.00;4982455;28;20038;-59
2021/06/01 04:31:08;;;;;;;5.35;3.13;;;;;;;9.08;69.08;96795.56;4973522;28;20093;-61
2021/06/01 04:33:33;;;;;;;5.22;3.67;;;;;;;9.26;68.65;96796.78;4974006;28;20056;-60
2021/06/01 04:36:01;;;;;;;5.03;3.08;;;;;;;9.42;67.99;96796.75;4981186;28;20606;-60
2021/06/01 04:38:27;;;;;;;4.80;3.38;;;;;;;9.48;67.49;96800.78;4973374;28;20044;-60
2021/06/01 04:40:52;;;;;;;8.43;3.65;;;;;;;9.56;67.76;96805.25;4982174;28;20447;-61
2021/06/01 04:43:18;;;;;;;5.90;3.60;;;;;;;9.74;67.37;96802.91;4974179;28;20109;-60
2021/06/01 04:45:44;;;;;;;6.40;3.92;;;;;;;10.03;66.34;96808.16;4978106;28;20527;-61
2021/06/01 04:48:10;;;;;;;6.63;3.80;;;;;;;10.28;65.73;96805.91;4970960;28;20413;-59
2021/06/01 04:50:36;;;;;;;9.20;3.97;;;;;;;11.12;63.43;96798.03;4981849;28;20101;-60
2021/06/01 04:53:01;;;;;;;6.88;3.30;;;;;;;13.10;57.01;96796.44;4977056;28;20056;-61
2021/06/01 04:55:27;;;;;;;7.00;3.30;;;;;;;15.36;49.85;96796.53;4963077;28;20113;-60
2021/06/01 04:57:52;;;;;;;7.75;3.42;;;;;;;17.23;44.50;96784.63;4981178;28;20035;-59
2021/06/01 05:00:18;;;;;;;5.53;2.90;;;;;;;17.67;42.74;96780.25;4979849;28;20130;-62
2021/06/01 05:02:44;;;;;;;6.75;3.30;;;;;;;19.01;40.34;96782.94;4989885;28;20106;-62
2021/06/01 05:05:10;;;;;;;5.47;2.60;;;;;;;18.90;39.98;96785.09;4984367;28;20045;-62
2021/06/01 05:07:35;;;;;;;5.45;2.65;;;;;;;20.48;37.10;96781.47;4981101;28;20112;-62
2021/06/01 05:10:02;;;;;;;4.05;2.20;;;;;;;21.37;35.26;96781.41;4976963;28;20042;-61
2021/06/01 05:12:28;;;;;;;4.50;2.83;;;;;;;22.75;32.65;96774.44;4970700;28;20108;-62
2021/06/01 05:14:54;;;;;;;3.33;2.22;;;;;;;23.93;30.08;96778.19;4987799;28;20479;-61
2021/06/01 05:17:20;;;;;;;4.53;2.38;;;;;;;24.23;29.47;96776.69;4968930;28;20054;-59
2021/06/01 05:19:45;;;;;;;3.97;2.28;;;;;;;25.47;27.91;96763.09;4981637;28;20699;-62
2021/06/01 05:22:12;;;;;;;6.60;2.53;;;;;;;25.62;26.73;96768.09;4966562;28;20059;-59
2021/06/01 05:24:37;;;;;;;4.90;2.30;;;;;;;25.64;26.95;96772.03;4981814;28;20046;-60
2021/06/01 05:27:03;;;;;;;5.22;3.13;;;;;;;25.80;26.72;96773.72;4977277;28;20088;-62
2021/06/01 05:29:29;;;;;;;3.00;1.95;;;;;;;26.75;25.30;96776.78;4977175;28;20130;-59
2021/06/01 05:34:39;;;;;;;4.88;2.17;;;;;;;27.60;24.11;96785.91;4974530;28;20129;-62
2021/06/01 05:37:04;;;;;;;3.92;2.50;;;;;;;25.82;25.51;96782.47;4976280;28;20388;-62
2021/06/01 05:39:30;;;;;;;5.45;2.28;;;;;;;26.65;24.28;96773.19;4980124;28;20065;-60
2021/06/01 05:41:55;;;;;;;3.78;2.30;;;;;;;25.85;25.39;96772.31;4978172;28;20057;-59
2021/06/01 05:44:20;;;;;;;4.72;2.30;;;;;;;23.94;28.21;96784.56;4971901;28;20038;-61
2021/06/01 05:46:46;;;;;;;5.95;2.13;;;;;;;24.55;27.69;96785.94;4972554;28;20117;-61
2021/06/01 05:49:12;;;;;;;3.35;2.33;;;;;;;24.82;27.44;96783.75;4966185;28;20096;-59
2021/06/01 05:51:38;;;;;;;4.40;2.17;;;;;;;25.47;26.48;96779.91;4981447;28;20066;-61
2021/06/01 05:54:05;;;;;;;4.93;2.40;;;;;;;26.01;25.75;96779.69;4978742;28;20053;-65
2021/06/01 05:56:32;;;;;;;4.85;2.30;;;;;;;25.72;26.05;96778.09;4979682;28;20140;-62
2021/06/01 05:58:57;;;;;;;6.72;2.60;;;;;;;27.41;24.09;96778.84;4979425;28;20053;-61
2021/06/01 06:01:22;;;;;;;4.25;2.53;;;;;;;27.30;24.04;96776.56;4966820;28;20094;-60
2021/06/01 06:03:48;;;;;;;4.50;2.35;;;;;;;26.03;25.55;96771.56;4978379;28;20053;-60
2021/06/01 06:06:14;;;;;;;6.10;2.55;;;;;;;26.92;25.28;96760.31;4973814;28;20046;-60
2021/06/01 06:08:40;;;;;;;5.90;2.42;;;;;;;26.37;26.24;96767.63;4972047;28;20039;-61
2021/06/01 06:11:06;;;;;;;3.78;2.28;;;;;;;26.83;25.36;96755.50;4970428;28;20561;-61
2021/06/01 06:13:31;;;;;;;3.63;2.25;;;;;;;27.36;24.72;96752.16;4976709;28;20201;-61
2021/06/01 06:15:57;;;;;;;5.15;2.90;;;;;;;23.60;30.14;96760.94;4970710;28;20038;-59
2021/06/01 06:18:25;;;;;;;4.70;2.78;;;;;;;25.98;26.69;96767.34;4975412;28;20524;-60
2021/06/01 06:20:50;;;;;;;6.20;3.00;;;;;;;26.98;24.98;96759.19;4979035;28;20074;-60
2021/06/01 06:23:16;;;;;;;6.35;2.95;;;;;;;26.73;25.68;96765.25;4988787;28;20423;-61
2021/06/01 06:25:41;;;;;;;6.72;3.10;;;;;;;26.15;26.32;96767.81;4983695;28;20100;-60
2021/06/01 06:28:07;;;;;;;5.55;3.20;;;;;;;26.88;24.93;96766.91;4977952;28;20129;-61
2021/06/01 06:30:32;;;;;;;6.32;2.70;;;;;;;26.84;24.97;96768.31;4979494;28;20042;-61
2021/06/01 06:32:58;;;;;;;4.18;2.70;;;;;;;26.70;24.94;96769.75;4980759;28;20109;-61
2021/06/01 06:35:23;;;;;;;7.63;2.97;;;;;;;24.02;29.17;96769.06;4977391;28;20541;-61
2021/06/01 06:37:49;;;;;;;6.15;3.13;;;;;;;21.47;33.06;96768.47;4982714;28;20046;-59
2021/06/01 06:40:16;;;;;;;4.38;3.03;;;;;;;22.76;31.26;96772.41;4974639;28;20042;-60
2021/06/01 06:42:42;;;;;;;5.32;3.17;;;;;;;20.69;34.97;96780.22;4982154;28;20562;-60
2021/06/01 06:45:10;;;;;;;4.55;3.03;;;;;;;18.93;37.45;96772.41;4970973;28;20042;-59
2021/06/01 06:50:15;;;;;;;6.22;3.15;;;;;;;21.54;33.56;96771.06;4970425;28;20045;-60
2021/06/01 06:52:41;;;;;;;9.32;2.80;;;;;;;22.14;33.11;96763.03;4978125;28;20066;-59
2021/06/01 06:55:09;;;;;;;3.70;2.70;;;;;;;19.93;36.69;96767.88;4976500;28;20054;-60
2021/06/01 06:57:35;;;;;;;3.55;2.55;;;;;;;18.02;40.89;96772.00;4976159;28;20050;-59
2021/06/01 07:00:04;;;;;;;6.07;2.90;;;;;;;21.52;35.04;96765.94;4990204;28;20047;-60
2021/06/01 07:02:29;;;;;;;4.18;2.78;;;;;;;20.35;34.43;96773.00;4973270;28;20421;-61
2021/06/01 07:04:55;;;;;;;4.13;2.97;;;;;;;19.03;38.26;96765.88;4981905;28;20050;-60
2021/06/01 07:07:20;;;;;;;7.57;3.72;;;;;;;19.58;37.74;96764.53;4962399;28;20094;-60
2021/06/01 07:09:46;;;;;;;5.38;3.00;;;;;;;22.32;32.04;96759.75;4968908;28;20410;-61
2021/06/01 07:12:13;;;;;;;3.17;2.40;;;;;;;19.82;36.02;96765.28;4975373;28;20042;-60
2021/06/01 07:14:44;;;;;;;7.55;3.38;;;;;;;19.14;38.51;96762.91;4981627;28;20047;-61
2021/06/01 07:17:10;;;;;;;4.60;2.55;;;;;;;19.04;38.82;96762.69;4973557;28;20121;-60
2021/06/01 07:19:35;;;;;;;3.75;2.50;;;;;;;20.14;36.82;96768.66;4987458;28;20484;-60
2021/06/01 07:22:01;;;;;;;7.55;2.47;;;;;;;22.07;33.50;96756.88;4969516;28;20046;-58
2021/06/01 07:24:26;;;;;;;8.98;3.03;;;;;;;20.21;35.55;96760.19;4942348;28;20043;-57
2021/06/01 07:26:51;;;;;;;4.05;2.30;;;;;;;22.24;32.29;96752.03;4973623;28;20503;-61
2021/06/01 07:29:17;;;;;;;8.20;2.95;;;;;;;23.11;30.92;96753.00;4974535;28;20048;-58
2021/06/01 07:31:43;;;;;;;4.72;2.65;;;;;;;22.14;32.17;96749.09;4980207;28;20728;-61
2021/06/01 07:34:08;;;;;;;5.85;2.92;;;;;;;22.95;30.45;96751.09;4970180;28;20085;-61
2021/06/01 07:36:33;;;;;;;9.52;2.80;;;;;;;23.84;30.07;96748.13;4978658;28;20050;-61
2021/06/01 07:38:59;;;;;;;6.97;2.60;;;;;;;23.15;31.41;96748.09;4977742;28;20042;-58
2021/06/01 07:41:24;;;;;;;5.57;2.70;;;;;;;23.62;31.52;96745.28;4971592;28;20050;-60
2021/06/01 07:43:52;;;;;;;6.43;2.75;;;;;;;23.48;31.30;96748.59;4976930;28;20050;-59
2021/06/01 07:46:17;;;;;;;5.15;2.55;;;;;;;23.21;32.15;96738.69;4973211;28;20042;-59
2021/06/01 07:48:43;;;;;;;6.35;2.88;;;;;;;24.79;30.69;96726.63;4974938;28;20046;-60
2021/06/01 07:51:11;;;;;;;8.90;3.00;;;;;;;24.26;30.24;96737.84;4966221;28;20038;-60
2021/06/01 07:53:38;;;;;;;5.00;2.58;;;;;;;24.58;30.28;96726.22;4982257;28;20105;-59
2021/06/01 07:56:07;;;;;;;5.85;2.75;;;;;;;25.49;28.99;96726.19;4977828;28;20520;-62
2021/06/01 07:58:32;;;;;;;3.83;2.65;;;;;;;25.30;29.21;96717.75;4982560;28;20049;-58
2021/06/01 08:00:58;;;;;;;4.90;3.20;;;;;;;24.97;29.54;96721.09;4976432;28;20038;-59
2021/06/01 08:03:23;;;;;;;8.77;3.40;;;;;;;23.63;31.81;96721.69;4972957;28;20144;-60
2021/06/01 08:05:51;;;;;;;6.72;2.97;;;;;;;24.01;31.24;96726.34;4963548;28;20083;-59
2021/06/01 08:08:17;;;;;;;5.38;2.95;;;;;;;22.73;33.53;96723.09;4972186;28;20038;-57
2021/06/01 08:10:42;;;;;;;6.38;3.28;;;;;;;22.71;33.52;96726.31;4976442;28;20043;-58
2021/06/01 08:13:07;;;;;;;4.85;3.28;;;;;;;22.14;34.71;96723.22;4970864;28;20105;-59
2021/06/01 08:15:33;;;;;;;12.52;4.07;;;;;;;21.01;37.00;96723.81;4975852;28;20047;-58
2021/06/01 08:18:02;;;;;;;7.20;3.45;;;;;;;20.78;37.28;96728.34;4983706;28;20496;-60
2021/06/01 08:20:37;;;;;;;5.93;3.43;;;;;;;20.48;38.12;96728.63;4974215;28;20137;-59
2021/06/01 08:23:03;;;;;;;7.43;3.47;;;;;;;20.72;37.81;96727.28;4975556;28;20077;-61
2021/06/01 08:25:28;;;;;;;5.32;3.28;;;;;;;20.95;37.56;96737.47;4967613;28;20070;-59
2021/06/01 08:27:55;;;;;;;5.28;3.42;;;;;;;21.01;37.15;96729.38;4979713;28;20113;-60
2021/06/01 08:30:21;;;;;;;9.07;3.47;;;;;;;21.26;37.06;96723.19;4972132;28;20046;-59
2021/06/01 08:32:47;;;;;;;6.45;2.75;;;;;;;21.52;37.11;96724.13;4977268;28;20046;-61
2021/06/01 08:35:12;;;;;;;4.93;3.20;;;;;;;22.23;35.14;96719.78;4976117;28;20109;-61
2021/06/01 08:37:39;;;;;;;5.32;3.20;;;;;;;22.08;35.71;96708.25;4975531;28;20042;-61
2021/06/01 08:40:06;;;;;;;9.55;3.50;;;;;;;21.66;36.23;96709.03;4975458;28;20454;-60
2021/06/01 08:42:34;;;;;;;5.78;3.22;;;;;;;22.18;35.37;96707.13;4974137;28;20502;-62
2021/06/01 08:44:59;;;;;;;7.68;3.58;;;;;;;22.93;34.35;96706.84;4990529;28;20110;-60
2021/06/01 08:47:25;;;;;;;6.35;3.10;;;;;;;22.90;34.37;96702.97;4979892;28;20503;-61
2021/06/01 08:49:50;;;;;;;7.32;3.83;;;;;;;22.88;34.62;96691.44;4974063;28;20042;-59
2021/06/01 08:52:16;;;;;;;8.75;3.65;;;;;;;22.43;35.41;96698.03;4973764;28;20175;-60
2021/06/01 08:54:45;;;;;;;7.40;3.20;;;;;;;22.68;34.81;96700.06;4961720;28;20043;-58
2021/06/01 08:57:11;;;;;;;9.63;5.90;;;;;;;22.38;36.13;96695.81;4961251;28;20057;-59
2021/06/01 08:59:36;;;;;;;10.27;3.90;;;;;;;20.86;39.16;96708.69;4978461;28;20070;-56
2021/06/01 09:02:03;;;;;;;7.18;3.53;;;;;;;21.87;37.62;96702.06;4976693;28;20073;-61
2021/06/01 09:04:49;;;;;;;6.10;3.40;;;;;;;21.44;38.59;96708.78;4971132;28;20050;-61
2021/06/01 09:07:24;;;;;;;9.30;4.05;;;;;;;21.29;39.83;96696.47;4975843;28;20065;-60
2021/06/01 09:10:18;;;;;;;5.93;3.50;;;;;;;21.76;38.58;96691.22;4982986;28;20050;-61
2021/06/01 09:13:37;;;;;;;6.45;3.75;;;;;;;22.19;37.56;96699.56;4976813;28;20050;-60
2021/06/01 09:21:46;;;;;;;11.63;4.78;;;;;;;21.55;38.77;96702.94;4970141;28;20051;-61
2021/06/01 09:24:12;;;;;;;7.30;3.88;;;;;;;;;;4956471;28;20050;-61
2021/06/01 09:26:37;;;;;;;5.60;3.38;;;;;;;21.61;38.49;96690.06;4970672;28;20049;-61
2021/06/01 09:29:03;;;;;;;8.98;4.45;;;;;;;21.22;39.55;96683.50;4972154;28;20042;-62
2021/06/01 09:31:28;;;;;;;8.13;3.83;;;;;;;21.77;38.60;96680.88;4975717;28;20082;-61
2021/06/01 09:33:54;;;;;;;8.88;3.78;;;;;;;21.80;38.63;96684.75;4975329;28;20104;-61
2021/06/01 09:36:22;;;;;;;7.35;3.65;;;;;;;21.92;37.81;96687.56;4973608;28;20530;-60
2021/06/01 09:38:48;;;;;;;8.35;3.92;;;;;;;21.30;39.75;96692.44;4977400;28;20297;-62
2021/06/01 09:41:28;;;;;;;6.85;3.55;;;;;;;21.41;40.69;96672.66;4967394;28;20047;-60
2021/06/01 09:44:11;;;;;;;6.43;4.07;;;;;;;21.26;39.76;96664.69;4969798;28;20121;-61
2021/06/01 09:46:44;;;;;;;8.23;4.18;;;;;;;21.52;39.46;96657.25;4964954;28;20403;-60
2021/06/01 09:49:12;;;;;;;8.18;3.95;;;;;;;21.92;38.91;96662.47;4968583;28;20105;-61
2021/06/01 09:51:43;;;;;;;6.53;3.72;;;;;;;22.22;37.39;96662.41;4963491;28;20049;-59
2021/06/01 09:54:31;;;;;;;5.60;3.55;;;;;;;22.47;37.48;96661.66;4972990;28;20047;-61
2021/06/01 09:56:57;;;;;;;6.68;3.80;;;;;;;22.10;38.22;96658.38;4977830;28;20474;-61
2021/06/01 09:59:22;;;;;;;7.35;3.63;;;;;;;21.87;39.18;96660.25;4958528;28;20126;-59
2021/06/01 10:01:48;;;;;;;8.48;4.20;;;;;;;21.73;39.50;96655.06;4961932;28;20152;-59
2021/06/01 10:04:31;;;;;;;5.53;3.80;;;;;;;21.60;39.23;96646.69;4958001;28;20047;-60
2021/06/01 10:06:57;;;;;;;7.68;4.30;;;;;;;21.28;39.90;96656.66;4963211;28;20051;-61
2021/06/01 10:09:22;;;;;;;6.90;4.88;;;;;;;20.89;41.04;96649.38;4969176;28;21055;-60
2021/06/01 10:11:58;;;;;;;11.55;4.97;;;;;;;21.08;40.81;96648.44;4975094;28;20041;-59
2021/06/01 10:14:25;;;;;;;10.20;4.30;;;;;;;21.40;40.27;96641.22;4973613;28;20782;-60
2021/06/01 10:16:51;;;;;;;6.28;3.97;;;;;;;21.66;40.16;96641.34;4972115;28;20046;-60
2021/06/01 10:19:17;;;;;;;24.90;14.40;;;;;;;21.75;40.41;96645.06;4966617;28;20051;-60
2021/06/01 10:21:43;;;;;;;9.10;4.90;;;;;;;21.61;40.07;96627.94;4981104;28;20054;-58
2021/06/01 10:24:12;;;;;;;8.07;3.90;;;;;;;21.58;40.73;96635.19;4970675;28;20074;-59
2021/06/01 10:26:38;;;;;;;8.63;4.45;;;;;;;21.83;39.48;96636.50;4979734;28;20043;-60
2021/06/01 10:29:04;;;;;;;10.65;3.80;;;;;;;21.90;38.96;96630.69;4966735;28;20043;-61
2021/06/01 10:31:30;;;;;;;8.52;4.50;;;;;;;22.03;39.44;96625.91;4978999;28;20770;-59
2021/06/01 10:33:59;;;;;;;7.55;4.53;;;;;;;22.17;39.14;96626.72;4981143;28;20132;-59
2021/06/01 10:50:39;;;;;;;6.18;3.33;;;;;;;22.31;38.83;96612.34;4974411;28;20042;-58
2021/06/01 10:53:20;;;;;;;5.97;3.65;;;;;;;21.99;38.53;96614.09;4975833;28;20045;-61
2021/06/01 10:55:59;;;;;;;7.97;3.67;;;;;;;22.23;39.60;96613.78;4980025;28;20042;-60
2021/06/01 10:58:50;;;;;;;6.75;3.38;;;;;;;22.37;38.02;96610.56;4965831;28;20050;-58
2021/06/01 11:04:12;;;;;;;7.13;3.65;;;;;;;22.51;37.76;96603.75;4978436;28;20129;-61
2021/06/01 11:06:47;;;;;;;7.07;3.58;;;;;;;22.57;38.20;96595.59;4980450;28;20125;-62
2021/06/01 11:09:31;;;;;;;6.03;3.10;;;;;;;22.60;36.61;96581.50;4975039;28;20365;-57
2021/06/01 11:12:00;;;;;;;4.88;3.15;;;;;;;22.98;36.74;96580.63;4981290;28;20108;-58
2021/06/01 11:14:28;;;;;;;5.25;3.00;;;;;;;22.76;36.76;96574.19;4971721;28;20570;-60
2021/06/01 11:17:01;;;;;;;6.78;2.92;;;;;;;23.18;35.95;96571.19;4980792;28;20117;-59
2021/06/01 11:20:00;;;;;;;10.48;3.20;;;;;;;23.34;35.34;96582.16;4975574;28;20039;-60
2021/06/01 11:33:17;;;;;;;10.48;5.30;;;;;;;23.03;36.31;96580.03;4960928;28;20052;-61
2021/06/01 11:35:48;;;;;;;7.80;3.28;;;;;;;23.18;35.07;96569.16;4965303;28;20061;-60
2021/06/01 11:38:21;;;;;;;6.57;2.60;;;;;;;23.36;33.28;96568.53;4958549;28;20492;-59
2021/06/01 11:43:36;;;;;;;4.13;2.35;;;;;;;23.77;31.62;96554.63;4971209;28;20431;-58
2021/06/01 11:51:14;;;;;;;6.97;2.65;;;;;;;23.01;31.88;96551.00;4975713;28;20042;-60
2021/06/01 11:53:49;;;;;;;6.32;4.28;;;;;;;23.28;30.53;96539.28;4976462;28;20078;-58
2021/06/01 11:56:19;;;;;;;6.15;1.80;;;;;;;23.14;30.34;96546.19;4975511;28;20034;-59
2021/06/01 12:19:09;;;;;;;8.70;1.50;;;;;;;23.66;28.17;96525.06;4951434;28;20039;-60
2021/06/01 12:21:37;;;;;;;7.40;2.45;;;;;;;23.84;28.30;96526.41;4956306;28;20400;-60
2021/06/01 12:24:13;;;;;;;4.10;2.40;;;;;;;23.80;29.74;96525.78;4980813;28;20093;-62
2021/06/01 12:32:12;;;;;;;7.65;1.58;;;;;;;24.78;27.09;96510.19;4976003;28;20192;-60
2021/06/01 13:21:43;;;;;;;2.15;1.20;;;;;;;23.16;26.57;96496.22;4969856;28;20422;-60
2021/06/01 13:30:11;;;;;;;2.38;1.40;;;;;;;23.35;26.53;96494.28;4973795;28;20347;-58
2021/06/01 13:38:55;;;;;;;2.78;1.30;;;;;;;23.58;24.51;96473.47;4973169;28;20038;-60
2021/06/01 13:46:42;;;;;;;2.95;1.50;;;;;;;23.72;28.29;96477.72;4979073;28;20053;-59
2021/06/01 13:49:22;;;;;;;3.05;1.48;;;;;;;23.98;26.66;96466.34;4971324;28;20042;-60
2021/06/01 14:19:33;;;;;;;3.20;1.48;;;;;;;23.57;26.29;96440.38;4982838;28;20087;-59
2021/06/01 14:38:59;;;;;;;2.65;1.17;;;;;;;23.38;26.45;96431.91;4967656;28;20085;-60
2021/06/01 15:47:40;;;;;;;11.27;2.08;;;;;;;23.96;25.61;96377.28;4977073;28;20053;-60
2021/06/01 15:55:42;;;;;;;2.60;1.33;;;;;;;23.55;24.20;96359.00;4975894;28;20038;-59
2021/06/01 16:11:47;;;;;;;3.10;1.40;;;;;;;23.38;25.11;96342.50;4977362;28;20041;-57
2021/06/01 17:11:04;;;;;;;2.70;1.38;;;;;;;22.59;29.42;96336.34;4965966;28;19965;-61